createdAt,value
2022-10-22T00:01:18.387Z,20.98
2022-10-22T00:04:01.102Z,20.86
2022-10-22T00:06:53.072Z,20.97
2022-10-22T00:09:35.382Z,20.85
2022-10-22T00:12:24.126Z,21.00
2022-10-22T00:15:06.384Z,21.06
2022-10-22T00:17:57.011Z,21.06
2022-10-22T00:20:39.367Z,21.05
2022-10-22T00:23:28.011Z,21.00
2022-10-22T00:26:24.936Z,21.05
2022-10-22T00:29:14.096Z,21.06
2022-10-22T00:34:44.107Z,20.96
2022-10-22T00:37:33.103Z,20.84
2022-10-22T00:40:16.365Z,20.81
2022-10-22T00:43:05.362Z,20.82
2022-10-22T00:45:47.383Z,20.80
2022-10-22T00:48:41.156Z,20.73
2022-10-22T00:51:23.375Z,20.70
2022-10-22T00:54:15.089Z,20.75
2022-10-22T00:56:57.359Z,20.76
2022-10-22T00:59:47.073Z,20.72
2022-10-22T01:02:29.368Z,20.66
2022-10-22T01:05:18.119Z,20.68
2022-10-22T01:08:02.475Z,20.62
2022-10-22T01:11:23.120Z,20.65
2022-10-22T01:14:20.343Z,20.63
2022-10-22T01:17:18.166Z,20.62
2022-10-22T01:20:15.354Z,20.63
2022-10-22T01:23:22.998Z,20.67
2022-10-22T01:26:51.929Z,20.64
2022-10-22T01:29:47.990Z,20.67
2022-10-22T01:32:33.362Z,20.66
2022-10-22T01:35:26.015Z,20.65
2022-10-22T01:38:13.431Z,20.57
2022-10-22T01:41:03.005Z,20.69
2022-10-22T01:43:45.359Z,20.68
2022-10-22T01:46:36.100Z,20.83
2022-10-22T01:49:31.001Z,20.85
2022-10-22T01:52:27.070Z,20.97
2022-10-22T01:55:30.111Z,21.04
2022-10-22T01:59:03.807Z,21.22
2022-10-22T02:01:55.070Z,21.25
2022-10-22T02:04:50.005Z,21.31
2022-10-22T02:07:45.082Z,21.45
2022-10-22T02:10:36.083Z,21.49
2022-10-22T02:13:23.585Z,21.55
2022-10-22T02:16:15.981Z,21.66
2022-10-22T02:19:02.674Z,21.75
2022-10-22T02:21:51.089Z,21.78
2022-10-22T02:24:41.078Z,21.89
2022-10-22T02:27:57.963Z,22.12
2022-10-22T02:30:51.073Z,22.23
2022-10-22T02:33:50.343Z,22.43
2022-10-22T02:36:40.045Z,22.64
2022-10-22T02:39:23.429Z,22.80
2022-10-22T02:42:12.062Z,22.97
2022-10-22T02:44:54.369Z,22.98
2022-10-22T02:47:44.065Z,23.06
2022-10-22T02:50:26.354Z,23.16
2022-10-22T02:53:15.095Z,23.26
2022-10-22T02:55:57.328Z,23.45
2022-10-22T02:58:46.073Z,23.59
2022-10-22T03:01:35.092Z,23.68
2022-10-22T03:04:17.290Z,23.88
2022-10-22T03:07:06.074Z,23.99
2022-10-22T03:09:48.287Z,24.23
2022-10-22T03:12:37.062Z,24.21
2022-10-22T03:15:19.982Z,24.29
2022-10-22T03:18:09.081Z,24.37
2022-10-22T03:20:51.307Z,24.38
2022-10-22T03:23:40.968Z,24.60
2022-10-22T03:26:36.905Z,24.51
2022-10-22T03:29:28.051Z,24.52
2022-10-22T03:32:10.432Z,24.90
2022-10-22T03:37:54.062Z,24.97
2022-10-22T03:40:43.081Z,24.90
2022-10-22T03:43:25.336Z,24.90
2022-10-22T03:46:13.979Z,25.16
2022-10-22T03:49:03.383Z,25.27
2022-10-22T03:51:51.402Z,25.54
2022-10-22T03:54:33.166Z,25.75
2022-10-22T03:57:21.385Z,26.08
2022-10-22T04:00:03.047Z,26.28
2022-10-22T04:02:46.230Z,26.74
2022-10-22T04:05:35.069Z,27.02
2022-10-22T04:08:24.408Z,27.42
2022-10-22T04:11:06.080Z,27.72
2022-10-22T04:13:54.336Z,27.78
2022-10-22T04:16:39.075Z,28.01
2022-10-22T04:19:21.279Z,28.40
2022-10-22T04:22:13.042Z,28.67
2022-10-22T04:25:02.080Z,28.89
2022-10-22T04:27:56.920Z,28.86
2022-10-22T04:30:46.057Z,29.18
2022-10-22T04:33:28.383Z,29.37
2022-10-22T04:36:19.135Z,29.42
2022-10-22T04:39:07.377Z,29.66
2022-10-22T04:41:56.062Z,30.15
2022-10-22T04:44:45.072Z,30.38
2022-10-22T04:47:27.262Z,30.17
2022-10-22T04:50:09.001Z,29.81
2022-10-22T04:52:51.335Z,30.11
2022-10-22T04:55:40.081Z,30.12
2022-10-22T04:58:22.534Z,30.55
2022-10-22T05:01:22.079Z,30.32
2022-10-22T05:04:06.346Z,30.61
2022-10-22T05:06:55.048Z,30.17
2022-10-22T05:09:44.050Z,30.32
2022-10-22T05:12:27.149Z,30.72
2022-10-22T05:15:16.086Z,30.31
2022-10-22T05:18:21.769Z,30.69
2022-10-22T05:21:12.048Z,31.39
2022-10-22T05:23:56.503Z,30.63
2022-10-22T05:26:45.067Z,30.90
2022-10-22T05:29:28.377Z,30.91
2022-10-22T05:32:17.042Z,31.02
2022-10-22T05:34:59.357Z,30.92
2022-10-22T05:37:48.172Z,30.98
2022-10-22T05:40:31.554Z,30.83
2022-10-22T05:43:20.107Z,31.11
2022-10-22T05:46:02.962Z,30.80
2022-10-22T05:48:52.114Z,31.12
2022-10-22T05:51:36.489Z,31.24
2022-10-22T05:54:28.071Z,30.66
2022-10-22T05:57:10.514Z,31.16
2022-10-22T05:59:59.064Z,31.26
2022-10-22T06:02:41.801Z,30.88
2022-10-22T06:05:31.089Z,31.36
2022-10-22T06:08:16.785Z,31.27
2022-10-22T06:11:09.037Z,31.71
2022-10-22T06:13:52.503Z,31.49
2022-10-22T06:16:42.103Z,31.35
2022-10-22T06:19:28.135Z,31.44
2022-10-22T06:22:17.057Z,31.17
2022-10-22T06:25:07.124Z,30.56
2022-10-22T06:28:05.970Z,31.07
2022-10-22T06:30:55.478Z,30.98
2022-10-22T06:33:41.065Z,31.15
2022-10-22T06:36:31.611Z,31.29
2022-10-22T06:39:14.059Z,30.54
2022-10-22T06:41:56.413Z,30.97
2022-10-22T06:44:49.058Z,30.83
2022-10-22T06:47:37.353Z,30.95
2022-10-22T06:50:20.063Z,31.18
2022-10-22T06:53:02.283Z,31.29
2022-10-22T06:55:51.059Z,31.15
2022-10-22T06:58:33.246Z,31.63
2022-10-22T07:01:25.164Z,31.89
2022-10-22T07:04:17.063Z,31.41
2022-10-22T07:06:59.343Z,31.12
2022-10-22T07:09:48.061Z,31.53
2022-10-22T07:12:30.338Z,31.22
2022-10-22T07:15:19.106Z,31.13
2022-10-22T07:18:01.320Z,31.61
2022-10-22T07:20:51.068Z,31.99
2022-10-22T07:23:41.046Z,32.14
2022-10-22T07:26:31.869Z,31.86
2022-10-22T07:29:23.069Z,31.28
2022-10-22T07:32:05.384Z,31.27
2022-10-22T07:34:54.050Z,31.22
2022-10-22T07:37:36.529Z,31.62
2022-10-22T07:40:25.076Z,31.33
2022-10-22T07:43:07.485Z,31.35
2022-10-22T07:45:56.231Z,31.29
2022-10-22T07:48:38.571Z,31.47
2022-10-22T07:51:27.047Z,31.63
2022-10-22T07:54:09.336Z,31.43
2022-10-22T07:56:58.040Z,31.57
2022-10-22T07:59:40.349Z,31.03
2022-10-22T08:02:29.042Z,30.96
2022-10-22T08:05:11.393Z,30.39
2022-10-22T08:07:59.970Z,30.97
2022-10-22T08:10:49.071Z,30.80
2022-10-22T08:13:31.964Z,30.82
2022-10-22T08:16:20.970Z,30.93
2022-10-22T08:19:09.982Z,31.19
2022-10-22T08:31:08.181Z,31.19
2022-10-22T08:34:16.970Z,30.99
2022-10-22T08:37:22.075Z,30.89
2022-10-22T08:40:04.395Z,31.25
2022-10-22T08:43:02.970Z,31.32
2022-10-22T08:46:29.953Z,31.63
2022-10-22T08:49:29.057Z,31.43
2022-10-22T08:52:12.468Z,31.30
2022-10-22T08:55:07.049Z,31.54
2022-10-22T08:58:05.048Z,31.24
2022-10-22T09:01:08.041Z,31.40
2022-10-22T09:04:33.047Z,31.34
2022-10-22T09:07:15.442Z,31.10
2022-10-22T09:10:09.057Z,31.31
2022-10-22T09:12:58.051Z,31.06
2022-10-22T09:15:41.670Z,31.31
2022-10-22T09:19:02.970Z,31.40
2022-10-22T09:22:00.303Z,31.12
2022-10-22T09:24:53.058Z,31.13
2022-10-22T09:27:38.620Z,31.27
2022-10-22T09:30:30.960Z,31.42
2022-10-22T09:33:18.179Z,31.46
2022-10-22T09:36:11.124Z,31.17
2022-10-22T09:38:56.897Z,30.74
2022-10-22T09:41:46.114Z,31.00
2022-10-22T09:44:29.373Z,31.07
2022-10-22T09:48:02.565Z,31.02
2022-10-22T09:50:54.375Z,30.93
2022-10-22T09:53:50.050Z,31.04
2022-10-22T09:56:56.507Z,30.97
2022-10-22T09:59:50.965Z,30.80
2022-10-22T10:02:43.015Z,30.67
2022-10-22T10:05:42.323Z,30.76
2022-10-22T10:08:26.009Z,30.83
2022-10-22T10:11:28.961Z,30.98
2022-10-22T10:14:39.991Z,30.72
2022-10-22T10:17:47.479Z,30.63
2022-10-22T10:20:49.970Z,30.26
2022-10-22T10:23:41.442Z,30.56
2022-10-22T10:26:29.041Z,30.55
2022-10-22T10:29:26.466Z,30.30
2022-10-22T10:32:23.618Z,30.45
2022-10-22T10:35:35.967Z,30.60
2022-10-22T10:38:49.521Z,30.36
2022-10-22T10:42:04.962Z,30.14
2022-10-22T10:44:56.363Z,30.33
2022-10-22T10:48:13.082Z,30.17
2022-10-22T10:51:31.027Z,30.04
2022-10-22T10:54:27.041Z,29.93
2022-10-22T10:57:58.048Z,29.92
2022-10-22T11:01:01.341Z,29.96
2022-10-22T11:03:50.043Z,29.79
2022-10-22T11:06:41.411Z,29.71
2022-10-22T11:09:26.061Z,29.79
2022-10-22T11:12:25.211Z,29.67
2022-10-22T11:15:37.976Z,29.54
2022-10-22T11:18:38.350Z,29.39
2022-10-22T11:21:40.990Z,29.32
2022-10-22T11:24:38.329Z,29.31
2022-10-22T11:27:41.269Z,29.17
2022-10-22T11:30:31.558Z,29.11
2022-10-22T11:33:24.062Z,29.07
2022-10-22T11:36:22.021Z,29.01
2022-10-22T11:39:13.056Z,28.84
2022-10-22T11:41:56.343Z,28.75
2022-10-22T11:44:57.054Z,28.63
2022-10-22T11:48:15.339Z,28.59
2022-10-22T11:51:09.953Z,28.44
2022-10-22T11:53:52.940Z,28.27
2022-10-22T11:56:48.043Z,28.22
2022-10-22T11:59:47.374Z,28.15
2022-10-22T12:02:53.046Z,27.98
2022-10-22T12:05:35.989Z,27.83
2022-10-22T12:08:29.968Z,27.81
2022-10-22T12:12:01.131Z,27.74
2022-10-22T12:15:00.409Z,27.69
2022-10-22T12:17:49.052Z,27.59
2022-10-22T12:20:31.537Z,27.59
2022-10-22T12:23:20.973Z,27.50
2022-10-22T12:26:12.325Z,27.45
2022-10-22T12:28:54.056Z,27.39
2022-10-22T12:31:41.482Z,27.37
2022-10-22T12:34:37.060Z,27.24
2022-10-22T12:37:27.335Z,27.20
2022-10-22T12:40:09.955Z,27.10
2022-10-22T12:43:02.396Z,27.01
2022-10-22T12:45:45.056Z,26.92
2022-10-22T12:48:44.979Z,26.89
2022-10-22T12:51:28.389Z,26.81
2022-10-22T12:54:26.980Z,26.73
2022-10-22T12:57:10.337Z,26.60
2022-10-22T13:02:54.950Z,26.55
2022-10-22T13:05:47.045Z,26.42
2022-10-22T13:08:34.438Z,26.43
2022-10-22T13:11:29.053Z,26.38
2022-10-22T13:14:26.406Z,26.36
2022-10-22T13:17:50.050Z,26.31
2022-10-22T13:20:40.093Z,26.27
2022-10-22T13:23:31.508Z,26.12
2022-10-22T13:26:24.057Z,26.12
2022-10-22T13:29:08.382Z,26.05
2022-10-22T13:31:59.964Z,25.94
2022-10-22T13:34:48.931Z,25.90
2022-10-22T13:37:40.750Z,25.89
2022-10-22T13:40:24.042Z,25.87
2022-10-22T13:43:06.288Z,25.85
2022-10-22T13:45:55.098Z,25.79
2022-10-22T13:48:44.338Z,25.78
2022-10-22T13:51:44.042Z,25.77
2022-10-22T13:54:26.690Z,25.76
2022-10-22T13:57:16.058Z,25.71
2022-10-22T14:00:05.032Z,25.68
2022-10-22T14:02:48.582Z,25.59
2022-10-22T14:05:38.042Z,25.57
2022-10-22T14:08:23.486Z,25.54
2022-10-22T14:11:12.062Z,25.48
2022-10-22T14:13:54.433Z,25.50
2022-10-22T14:16:43.007Z,25.50
2022-10-22T14:19:33.047Z,25.47
2022-10-22T14:22:24.072Z,25.49
2022-10-22T14:25:06.376Z,25.45
2022-10-22T14:27:54.952Z,25.46
2022-10-22T14:30:44.137Z,25.43
2022-10-22T14:33:35.116Z,25.53
2022-10-22T14:36:28.077Z,25.36
2022-10-22T14:39:16.406Z,25.36
2022-10-22T14:41:57.961Z,25.36
2022-10-22T14:44:48.410Z,25.26
2022-10-22T14:47:31.037Z,25.16
2022-10-22T14:50:20.337Z,25.14
2022-10-22T14:53:02.317Z,25.04
2022-10-22T14:55:53.047Z,25.01
2022-10-22T14:58:35.383Z,24.98
2022-10-22T15:01:24.063Z,24.99
2022-10-22T15:04:06.486Z,24.92
2022-10-22T15:06:55.041Z,24.87
2022-10-22T15:09:45.042Z,24.87
2022-10-22T15:12:34.021Z,24.81
2022-10-22T15:15:17.334Z,24.70
2022-10-22T15:18:08.049Z,24.67
2022-10-22T15:20:50.463Z,24.65
2022-10-22T15:23:39.030Z,24.56
2022-10-22T15:26:28.963Z,24.53
2022-10-22T15:29:24.053Z,24.55
2022-10-22T15:32:13.301Z,24.56
2022-10-22T15:34:56.076Z,24.55
2022-10-22T15:37:44.352Z,24.51
2022-10-22T15:40:25.980Z,24.45
2022-10-22T15:43:14.337Z,24.41
2022-10-22T15:46:18.945Z,24.38
2022-10-22T15:49:08.476Z,24.33
2022-10-22T15:51:50.038Z,24.24
2022-10-22T15:54:38.948Z,24.22
2022-10-22T15:57:21.394Z,24.15
2022-10-22T16:00:09.957Z,24.16
2022-10-22T16:02:52.451Z,24.19
2022-10-22T16:05:40.934Z,24.14
2022-10-22T16:08:24.479Z,24.08
2022-10-22T16:11:13.025Z,23.98
2022-10-22T16:14:03.048Z,24.05
2022-10-22T16:16:54.355Z,23.91
2022-10-22T16:19:37.463Z,23.89
2022-10-22T16:22:25.300Z,23.84
2022-10-22T16:25:07.083Z,23.83
2022-10-22T16:27:53.198Z,23.80
2022-10-22T16:30:42.031Z,23.73
2022-10-22T16:33:41.134Z,23.70
2022-10-22T16:36:40.087Z,23.69
2022-10-22T16:39:22.253Z,23.65
2022-10-22T16:42:10.927Z,23.60
2022-10-22T16:45:00.018Z,23.64
2022-10-22T16:47:50.068Z,23.63
2022-10-22T16:50:39.362Z,23.60
2022-10-22T16:53:22.067Z,23.47
2022-10-22T16:56:04.352Z,23.55
2022-10-22T16:58:54.036Z,23.46
2022-10-22T17:01:43.143Z,23.37
2022-10-22T17:04:25.511Z,23.41
2022-10-22T17:07:14.021Z,23.42
2022-10-22T17:10:03.031Z,23.32
2022-10-22T17:12:45.342Z,23.35
2022-10-22T17:15:34.045Z,23.33
2022-10-22T17:18:16.560Z,23.33
2022-10-22T17:21:05.941Z,23.26
2022-10-22T17:23:56.024Z,23.29
2022-10-22T17:26:38.569Z,23.24
2022-10-22T17:29:30.064Z,23.21
2022-10-22T17:32:12.400Z,23.15
2022-10-22T17:35:01.104Z,23.12
2022-10-22T17:37:49.355Z,23.03
2022-10-22T17:40:32.019Z,23.05
2022-10-22T17:43:20.316Z,23.03
2022-10-22T17:46:12.036Z,23.02
2022-10-22T17:49:00.246Z,22.98
2022-10-22T17:51:49.088Z,22.97
2022-10-22T17:54:38.470Z,23.00
2022-10-22T17:57:21.018Z,22.90
2022-10-22T18:00:10.526Z,22.90
2022-10-22T18:02:53.007Z,22.88
2022-10-22T18:05:35.426Z,22.86
2022-10-22T18:08:24.002Z,22.78
2022-10-22T18:11:17.321Z,22.91
2022-10-22T18:16:49.457Z,22.77
2022-10-22T18:19:32.018Z,22.70
2022-10-22T18:22:27.020Z,22.78
2022-10-22T18:25:17.509Z,22.75
2022-10-22T18:27:59.003Z,22.67
2022-10-22T18:30:51.046Z,22.70
2022-10-22T18:33:40.054Z,22.62
2022-10-22T18:36:32.030Z,22.68
2022-10-22T18:39:14.551Z,22.60
2022-10-22T18:42:03.052Z,22.60
2022-10-22T18:44:45.454Z,22.55
2022-10-22T18:47:34.003Z,22.59
2022-10-22T18:50:17.291Z,22.53
2022-10-22T18:53:06.019Z,22.50
2022-10-22T18:55:48.447Z,22.54
2022-10-22T18:58:37.005Z,22.45
2022-10-22T19:01:29.084Z,22.41
2022-10-22T19:04:18.028Z,22.40
2022-10-22T19:07:00.490Z,22.37
2022-10-22T19:09:50.026Z,22.31
2022-10-22T19:12:32.497Z,22.29
2022-10-22T19:15:21.086Z,22.27
2022-10-22T19:18:03.478Z,22.34
2022-10-22T19:20:54.003Z,22.33
2022-10-22T19:23:37.531Z,22.22
2022-10-22T19:26:29.011Z,22.26
2022-10-22T19:29:12.357Z,22.16
2022-10-22T19:32:01.030Z,22.21
2022-10-22T19:34:44.144Z,22.15
2022-10-22T19:37:33.001Z,22.23
2022-10-22T19:40:16.510Z,22.25
2022-10-22T19:43:05.004Z,22.16
2022-10-22T19:45:50.423Z,22.10
2022-10-22T19:48:39.071Z,22.11
2022-10-22T19:51:27.347Z,22.09
2022-10-22T19:54:20.034Z,22.08
2022-10-22T19:59:52.999Z,22.00
2022-10-22T20:02:42.045Z,21.92
2022-10-22T20:05:31.293Z,21.99
2022-10-22T20:08:13.913Z,21.87
2022-10-22T20:11:02.917Z,21.98
2022-10-22T20:13:49.723Z,22.04
2022-10-22T20:16:40.992Z,21.99
2022-10-22T20:19:33.995Z,21.99
2022-10-22T20:22:17.986Z,21.94
2022-10-22T20:25:07.988Z,21.80
2022-10-22T20:27:56.309Z,21.90
2022-10-22T20:30:39.007Z,21.82
2022-10-22T20:33:23.175Z,21.79
2022-10-22T20:36:16.989Z,21.72
2022-10-22T20:39:07.223Z,21.73
2022-10-22T20:41:55.989Z,21.67
2022-10-22T20:44:44.981Z,21.74
2022-10-22T20:47:34.317Z,21.70
2022-10-22T20:50:38.998Z,21.65
2022-10-22T20:53:28.993Z,21.60
2022-10-22T20:56:12.050Z,21.55
2022-10-22T20:59:12.002Z,21.60
2022-10-22T21:02:01.995Z,21.49
2022-10-22T21:04:45.729Z,21.50
2022-10-22T21:07:28.005Z,21.47
2022-10-22T21:10:17.407Z,21.51
2022-10-22T21:12:59.030Z,21.49
2022-10-22T21:15:41.404Z,21.55
2022-10-22T21:18:30.008Z,21.46
2022-10-22T21:21:20.148Z,21.37
2022-10-22T21:24:02.897Z,21.33
2022-10-22T21:26:45.896Z,21.37
2022-10-22T21:29:35.035Z,21.33
2022-10-22T21:32:23.292Z,21.34
2022-10-22T21:35:04.885Z,21.34
2022-10-22T21:37:53.310Z,21.39
2022-10-22T21:40:35.912Z,21.40
2022-10-22T21:43:19.444Z,21.45
2022-10-22T21:46:23.931Z,21.39
2022-10-22T21:49:06.627Z,21.35
2022-10-22T21:51:58.979Z,21.27
2022-10-22T21:54:47.284Z,21.22
2022-10-22T21:57:28.904Z,21.18
2022-10-22T22:00:19.250Z,21.19
2022-10-22T22:03:01.022Z,21.22
2022-10-22T22:05:51.495Z,21.19
2022-10-22T22:08:35.122Z,21.14
2022-10-22T22:11:27.266Z,21.11
2022-10-22T22:14:08.984Z,21.08
2022-10-22T22:16:51.246Z,21.11
2022-10-22T22:19:39.986Z,21.07
2022-10-22T22:22:28.970Z,21.06
2022-10-22T22:25:11.899Z,20.94
2022-10-22T22:28:00.883Z,21.03
2022-10-22T22:30:49.920Z,20.94
2022-10-22T22:33:38.966Z,20.91
2022-10-22T22:36:27.246Z,20.91
2022-10-22T22:39:09.897Z,20.90
2022-10-22T22:42:05.972Z,20.89
2022-10-22T22:44:54.916Z,20.86
2022-10-22T22:47:38.278Z,20.87
2022-10-22T22:50:26.995Z,20.84
2022-10-22T22:53:09.281Z,20.79
2022-10-22T22:55:57.953Z,20.81
2022-10-22T22:58:47.892Z,20.80
2022-10-22T23:01:39.293Z,20.73
2022-10-22T23:04:29.897Z,20.77
2022-10-22T23:07:18.236Z,20.70
2022-10-22T23:10:00.032Z,20.67
2022-10-22T23:12:49.232Z,20.62
2022-10-22T23:15:31.022Z,20.60
2022-10-22T23:18:20.311Z,20.70
2022-10-22T23:21:02.971Z,20.67
2022-10-22T23:23:50.395Z,20.77
2022-10-22T23:26:42.027Z,20.70
2022-10-22T23:29:30.274Z,20.69
2022-10-22T23:32:24.984Z,20.71
2022-10-22T23:35:13.981Z,20.69
2022-10-22T23:38:08.973Z,20.70
2022-10-22T23:40:58.732Z,20.74
2022-10-22T23:43:49.014Z,20.70
2022-10-22T23:46:39.600Z,20.71
2022-10-22T23:49:21.991Z,20.62
2022-10-22T23:52:04.193Z,20.77
2022-10-22T23:54:53.028Z,20.69
2022-10-22T23:57:35.337Z,20.75
